createdAt,value
2023-01-25T00:00:56.592Z,0.11
2023-01-25T00:03:23.144Z,-0.04
2023-01-25T00:05:58.724Z,-0.03
2023-01-25T00:08:25.480Z,0.03
2023-01-25T00:10:52.038Z,-0.01
2023-01-25T00:13:18.586Z,0.08
2023-01-25T00:15:45.001Z,-0.05
2023-01-25T00:18:11.435Z,0.09
2023-01-25T00:20:37.995Z,-0.12
2023-01-25T00:23:04.547Z,-0.06
2023-01-25T00:25:31.659Z,0.02
2023-01-25T00:27:58.173Z,-0.04
2023-01-25T00:30:24.903Z,-0.01
2023-01-25T00:33:27.510Z,0.08
2023-01-25T00:35:56.899Z,-0.03
2023-01-25T00:38:33.679Z,0.04
2023-01-25T00:41:00.608Z,-0.09
2023-01-25T00:43:27.472Z,-0.06
2023-01-25T00:46:00.910Z,-0.03
2023-01-25T00:48:27.612Z,0.07
2023-01-25T00:50:54.530Z,0.01
2023-01-25T00:53:21.142Z,0.10
2023-01-25T00:55:54.060Z,0.16
2023-01-25T00:58:20.711Z,0.11
2023-01-25T01:00:47.259Z,0.06
2023-01-25T01:03:13.793Z,0.11
2023-01-25T01:05:40.551Z,0.13
2023-01-25T01:08:06.997Z,-0.14
2023-01-25T01:10:33.562Z,-0.01
2023-01-25T01:13:00.390Z,-0.22
2023-01-25T01:15:27.262Z,-0.11
2023-01-25T01:17:53.992Z,-0.07
2023-01-25T01:20:20.783Z,0.02
2023-01-25T01:22:47.436Z,-0.12
2023-01-25T01:25:14.556Z,-0.12
2023-01-25T01:27:41.144Z,-0.13
2023-01-25T01:30:08.749Z,-0.10
2023-01-25T01:32:35.502Z,-0.06
2023-01-25T01:35:02.186Z,-0.13
2023-01-25T01:37:28.801Z,-0.14
2023-01-25T01:39:55.548Z,-0.04
2023-01-25T01:42:22.175Z,-0.04
2023-01-25T01:44:51.549Z,0.00
2023-01-25T01:47:24.629Z,-0.02
2023-01-25T01:49:57.470Z,-0.09
2023-01-25T01:52:31.018Z,-0.07
2023-01-25T01:55:00.720Z,-0.05
2023-01-25T01:58:09.795Z,-0.13
2023-01-25T02:00:40.011Z,-0.11
2023-01-25T02:03:06.896Z,-0.23
2023-01-25T02:05:56.297Z,-0.21
2023-01-25T02:08:25.076Z,-0.17
2023-01-25T02:10:51.763Z,-0.21
2023-01-25T02:13:21.645Z,-0.19
2023-01-25T02:15:52.017Z,-0.15
2023-01-25T02:18:20.037Z,-0.10
2023-01-25T02:20:50.950Z,-0.14
2023-01-25T02:23:35.542Z,-0.08
2023-01-25T02:26:05.706Z,-0.30
2023-01-25T02:28:36.321Z,-0.22
2023-01-25T02:31:02.818Z,-0.18
2023-01-25T02:33:29.553Z,-0.13
2023-01-25T02:36:15.831Z,-0.27
2023-01-25T02:38:48.453Z,-0.24
2023-01-25T02:41:37.193Z,-0.24
2023-01-25T02:44:11.207Z,-0.21
2023-01-25T02:46:39.677Z,-0.27
2023-01-25T02:49:08.067Z,-0.34
2023-01-25T02:51:37.262Z,-0.26
2023-01-25T02:54:06.523Z,-0.26
2023-01-25T02:56:33.737Z,-0.32
2023-01-25T02:59:05.428Z,-0.36
2023-01-25T03:01:37.709Z,-0.37
2023-01-25T03:04:05.618Z,-0.29
2023-01-25T03:06:33.467Z,-0.33
2023-01-25T03:09:00.757Z,-0.43
2023-01-25T03:11:27.268Z,-0.36
2023-01-25T03:13:54.191Z,-0.29
2023-01-25T03:16:21.016Z,-0.28
2023-01-25T03:18:47.723Z,-0.27
2023-01-25T03:21:22.224Z,-0.36
2023-01-25T03:23:55.581Z,-0.30
2023-01-25T03:26:23.628Z,-0.30
2023-01-25T03:28:50.157Z,-0.32
2023-01-25T03:31:17.787Z,-0.14
2023-01-25T03:33:44.607Z,-0.26
2023-01-25T03:36:12.085Z,-0.22
2023-01-25T03:38:38.641Z,-0.40
2023-01-25T03:41:05.298Z,-0.45
2023-01-25T03:43:36.519Z,-0.37
2023-01-25T03:46:03.564Z,-0.30
2023-01-25T03:48:31.671Z,-0.36
2023-01-25T03:50:59.382Z,-0.65
2023-01-25T03:53:31.108Z,-0.54
2023-01-25T03:56:00.853Z,-0.45
2023-01-25T03:58:28.640Z,-0.54
2023-01-25T04:00:56.985Z,-0.50
2023-01-25T04:03:25.229Z,-0.41
2023-01-25T04:05:53.145Z,-0.42
2023-01-25T04:08:19.966Z,-0.61
2023-01-25T04:10:53.095Z,-0.51
2023-01-25T04:13:21.675Z,-0.43
2023-01-25T04:15:48.340Z,-0.66
2023-01-25T04:18:15.297Z,-0.51
2023-01-25T04:20:43.211Z,-0.63
2023-01-25T04:23:10.937Z,-0.69
2023-01-25T04:25:42.862Z,-0.46
2023-01-25T04:28:09.404Z,-0.49
2023-01-25T04:30:35.901Z,-0.45
2023-01-25T04:33:04.762Z,-0.49
2023-01-25T04:35:31.658Z,-0.57
2023-01-25T04:37:59.786Z,-0.61
2023-01-25T04:40:26.702Z,-0.79
2023-01-25T04:42:53.327Z,-0.73
2023-01-25T04:45:20.045Z,-0.74
2023-01-25T04:47:46.664Z,-0.49
2023-01-25T04:50:13.318Z,-0.52
2023-01-25T04:52:43.616Z,-0.51
2023-01-25T04:55:10.529Z,-0.32
2023-01-25T04:57:37.167Z,-0.39
2023-01-25T05:00:04.259Z,-0.34
2023-01-25T05:02:30.964Z,-0.53
2023-01-25T05:04:57.614Z,-0.53
2023-01-25T05:07:24.315Z,-0.64
2023-01-25T05:09:50.865Z,-0.60
2023-01-25T05:12:17.658Z,-0.68
2023-01-25T05:14:44.344Z,-0.82
2023-01-25T05:17:11.380Z,-0.82
2023-01-25T05:19:38.322Z,-0.77
2023-01-25T05:22:07.718Z,-0.76
2023-01-25T05:24:36.184Z,-0.64
2023-01-25T05:27:08.110Z,-0.64
2023-01-25T05:29:37.234Z,-0.72
2023-01-25T05:32:18.929Z,-0.67
2023-01-25T05:34:46.657Z,-0.86
2023-01-25T05:37:15.819Z,-0.78
2023-01-25T05:39:42.607Z,-0.73
2023-01-25T05:42:12.934Z,-0.69
2023-01-25T05:44:39.725Z,-0.73
2023-01-25T05:47:06.893Z,-0.81
2023-01-25T05:49:33.642Z,-0.84
2023-01-25T05:52:00.260Z,-0.94
2023-01-25T05:54:27.007Z,-0.71
2023-01-25T05:56:53.590Z,-0.72
2023-01-25T05:59:21.582Z,-0.66
2023-01-25T06:01:48.339Z,-0.81
2023-01-25T06:04:15.861Z,-0.74
2023-01-25T06:06:42.794Z,-0.69
2023-01-25T06:09:11.785Z,-0.67
2023-01-25T06:11:38.367Z,-0.54
2023-01-25T06:14:05.311Z,-0.69
2023-01-25T06:16:32.137Z,-0.60
2023-01-25T06:18:58.879Z,-0.62
2023-01-25T06:21:25.577Z,-0.84
2023-01-25T06:23:52.308Z,-0.81
2023-01-25T06:26:18.920Z,-0.62
2023-01-25T06:28:45.507Z,-0.57
2023-01-25T06:31:20.911Z,-0.59
2023-01-25T06:33:50.023Z,-0.64
2023-01-25T06:36:18.945Z,-0.71
2023-01-25T06:38:52.414Z,-0.63
2023-01-25T06:41:19.735Z,-0.72
2023-01-25T06:43:46.334Z,-0.71
2023-01-25T06:46:13.796Z,-0.95
2023-01-25T06:48:41.823Z,-0.85
2023-01-25T06:51:12.229Z,-0.89
2023-01-25T06:53:42.272Z,-0.75
2023-01-25T06:56:20.707Z,-0.67
2023-01-25T06:58:48.266Z,-0.63
2023-01-25T07:01:22.034Z,-0.67
2023-01-25T07:03:52.985Z,-1.04
2023-01-25T07:06:19.839Z,-1.03
2023-01-25T07:08:46.977Z,-0.98
2023-01-25T07:11:16.237Z,-0.94
2023-01-25T07:13:47.983Z,-1.07
2023-01-25T07:16:17.416Z,-1.03
2023-01-25T07:18:44.453Z,-0.92
2023-01-25T07:21:21.179Z,-0.86
2023-01-25T07:23:51.277Z,-0.74
2023-01-25T07:26:23.563Z,-0.68
2023-01-25T07:28:51.489Z,-0.99
2023-01-25T07:31:20.093Z,-0.68
2023-01-25T07:33:51.084Z,-0.66
2023-01-25T07:36:18.307Z,-0.82
2023-01-25T07:38:45.408Z,-0.74
2023-01-25T07:41:16.880Z,-0.58
2023-01-25T07:43:43.683Z,-0.64
2023-01-25T07:46:12.274Z,-0.66
2023-01-25T07:48:40.292Z,-0.91
2023-01-25T07:51:12.934Z,-1.05
2023-01-25T07:53:43.595Z,-1.09
2023-01-25T07:56:11.933Z,-1.09
2023-01-25T07:58:39.185Z,-1.20
2023-01-25T08:01:10.678Z,-1.19
2023-01-25T08:03:37.563Z,-1.28
2023-01-25T08:06:07.668Z,-1.26
2023-01-25T08:08:36.355Z,-1.18
2023-01-25T08:11:13.206Z,-1.25
2023-01-25T08:13:40.830Z,-1.24
2023-01-25T08:16:07.911Z,-1.35
2023-01-25T08:18:36.004Z,-1.26
2023-01-25T08:21:03.319Z,-1.26
2023-01-25T08:23:30.115Z,-1.19
2023-01-25T08:26:01.963Z,-1.35
2023-01-25T08:28:28.493Z,-1.21
2023-01-25T08:30:57.527Z,-1.33
2023-01-25T08:33:24.343Z,-1.31
2023-01-25T08:35:56.418Z,-1.22
2023-01-25T08:38:26.614Z,-1.23
2023-01-25T08:40:53.082Z,-1.20
2023-01-25T08:43:19.695Z,-1.27
2023-01-25T08:45:46.299Z,-1.38
2023-01-25T08:48:15.671Z,-1.33
2023-01-25T08:50:47.445Z,-1.27
2023-01-25T08:53:14.355Z,-1.17
2023-01-25T08:55:43.052Z,-1.34
2023-01-25T08:58:19.838Z,-1.06
2023-01-25T09:00:46.497Z,-0.75
2023-01-25T09:03:13.201Z,-0.99
2023-01-25T09:05:40.029Z,-1.10
2023-01-25T09:08:08.516Z,-1.08
2023-01-25T09:10:35.311Z,-1.10
2023-01-25T09:13:02.638Z,-1.17
2023-01-25T09:15:29.283Z,-1.03
2023-01-25T09:17:57.234Z,-1.11
2023-01-25T09:20:24.166Z,-1.17
2023-01-25T09:22:50.761Z,-1.09
2023-01-25T09:25:17.382Z,-1.27
2023-01-25T09:27:44.020Z,-1.21
2023-01-25T09:30:18.185Z,-1.04
2023-01-25T09:32:45.928Z,-0.82
2023-01-25T09:35:12.607Z,-0.89
2023-01-25T09:37:39.604Z,-1.02
2023-01-25T09:40:07.708Z,-0.85
2023-01-25T09:42:39.808Z,-1.14
2023-01-25T09:45:26.764Z,-1.16
2023-01-25T09:48:17.469Z,-1.03
2023-01-25T09:51:13.730Z,-0.87
2023-01-25T09:53:50.221Z,-0.87
2023-01-25T09:56:32.757Z,-0.91
2023-01-25T09:59:21.970Z,-1.08
2023-01-25T10:02:10.271Z,-1.02
2023-01-25T10:04:43.157Z,-1.03
2023-01-25T10:07:38.506Z,-0.69
2023-01-25T10:10:14.115Z,-0.90
2023-01-25T10:12:40.658Z,-0.74
2023-01-25T10:15:19.926Z,-0.67
2023-01-25T10:17:58.381Z,-0.92
2023-01-25T10:20:37.459Z,-1.10
2023-01-25T10:23:19.193Z,-0.93
2023-01-25T10:26:00.246Z,-0.89
2023-01-25T10:28:44.933Z,-0.92
2023-01-25T10:31:29.555Z,-0.96
2023-01-25T10:33:57.068Z,-1.08
2023-01-25T10:36:30.346Z,-0.90
2023-01-25T10:39:01.216Z,-0.80
2023-01-25T10:41:36.403Z,-0.68
2023-01-25T10:44:21.914Z,-0.57
2023-01-25T10:47:04.434Z,-0.52
2023-01-25T10:49:47.805Z,-0.48
2023-01-25T10:52:18.815Z,-0.26
2023-01-25T10:54:46.884Z,-0.22
2023-01-25T10:57:19.210Z,-0.22
2023-01-25T10:59:48.187Z,-0.43
2023-01-25T11:02:36.445Z,-0.44
2023-01-25T11:05:27.294Z,-0.31
2023-01-25T11:07:53.969Z,-0.36
2023-01-25T11:10:33.293Z,-0.71
2023-01-25T11:13:15.029Z,-0.36
2023-01-25T11:15:47.186Z,-0.29
2023-01-25T11:18:35.059Z,-0.05
2023-01-25T11:21:06.606Z,-0.19
2023-01-25T11:23:33.983Z,-0.01
2023-01-25T11:26:16.651Z,-0.06
2023-01-25T11:28:44.810Z,-0.64
2023-01-25T11:31:16.833Z,-0.84
2023-01-25T11:33:43.396Z,-1.12
2023-01-25T11:36:36.401Z,-0.94
2023-01-25T11:39:06.291Z,-0.32
2023-01-25T11:42:01.180Z,-0.44
2023-01-25T11:44:53.355Z,-0.26
2023-01-25T11:47:32.298Z,-0.29
2023-01-25T11:50:16.789Z,-0.24
2023-01-25T11:53:03.260Z,-0.41
2023-01-25T11:55:40.619Z,-0.80
2023-01-25T11:58:17.836Z,-0.24
2023-01-25T12:00:50.372Z,-0.52
2023-01-25T12:03:26.870Z,-0.35
2023-01-25T12:06:27.808Z,-0.15
2023-01-25T12:09:11.839Z,-0.07
2023-01-25T12:12:02.732Z,-0.04
2023-01-25T12:14:50.430Z,0.07
2023-01-25T12:17:42.919Z,-0.05
2023-01-25T12:20:10.232Z,-0.04
2023-01-25T12:22:42.934Z,0.21
2023-01-25T12:25:21.200Z,-0.09
2023-01-25T12:28:05.089Z,-0.09
2023-01-25T12:30:56.963Z,-0.19
2023-01-25T12:33:32.532Z,-0.05
2023-01-25T12:36:25.049Z,0.05
2023-01-25T12:39:18.231Z,-0.08
2023-01-25T12:41:52.059Z,-0.13
2023-01-25T12:44:29.316Z,-0.43
2023-01-25T12:47:23.727Z,-0.25
2023-01-25T12:49:55.711Z,-0.26
2023-01-25T12:52:42.354Z,-0.24
2023-01-25T12:55:17.546Z,-0.21
2023-01-25T12:58:02.484Z,-0.24
2023-01-25T13:00:43.995Z,-0.06
2023-01-25T13:03:28.101Z,0.23
2023-01-25T13:06:36.902Z,0.38
2023-01-25T13:09:09.670Z,0.29
2023-01-25T13:11:41.717Z,0.16
2023-01-25T13:14:20.782Z,-0.11
2023-01-25T13:17:08.582Z,0.13
2023-01-25T13:19:36.072Z,-0.01
2023-01-25T13:22:02.725Z,-0.36
2023-01-25T13:24:31.901Z,-0.52
2023-01-25T13:27:23.444Z,-0.17
2023-01-25T13:30:00.428Z,-0.36
2023-01-25T13:32:33.057Z,-0.64
2023-01-25T13:35:00.722Z,-0.58
2023-01-25T13:37:33.129Z,-0.60
2023-01-25T13:40:07.288Z,-0.25
2023-01-25T13:42:36.710Z,-0.42
2023-01-25T13:45:14.181Z,-0.58
2023-01-25T13:47:43.418Z,-0.77
2023-01-25T13:50:24.153Z,-0.62
2023-01-25T13:53:02.892Z,-0.57
2023-01-25T13:55:38.745Z,-0.50
2023-01-25T13:58:14.989Z,-0.45
2023-01-25T14:01:06.383Z,-0.45
2023-01-25T14:03:48.621Z,-0.43
2023-01-25T14:06:25.744Z,-0.51
2023-01-25T14:08:55.803Z,-0.35
2023-01-25T14:11:26.566Z,-0.19
2023-01-25T14:14:00.924Z,-0.16
2023-01-25T14:16:30.301Z,-0.29
2023-01-25T14:19:18.632Z,-0.13
2023-01-25T14:21:45.986Z,-0.04
2023-01-25T14:24:18.452Z,0.12
2023-01-25T14:26:47.579Z,0.08
2023-01-25T14:29:35.409Z,0.12
2023-01-25T14:32:03.036Z,-0.07
2023-01-25T14:34:29.797Z,0.09
2023-01-25T14:37:18.044Z,0.19
2023-01-25T14:39:46.534Z,0.00
2023-01-25T14:42:13.283Z,0.11
2023-01-25T14:44:40.715Z,0.28
2023-01-25T14:47:29.824Z,0.22
2023-01-25T14:50:16.958Z,0.09
2023-01-25T14:52:43.543Z,0.05
2023-01-25T14:55:10.176Z,0.05
2023-01-25T14:57:39.349Z,-0.04
2023-01-25T15:00:19.549Z,-0.08
2023-01-25T15:02:49.967Z,-0.14
2023-01-25T15:05:24.080Z,-0.43
2023-01-25T15:07:53.637Z,-0.27
2023-01-25T15:10:33.361Z,-0.54
2023-01-25T15:13:14.493Z,-0.64
2023-01-25T15:15:58.608Z,-0.57
2023-01-25T15:18:42.731Z,-0.57
2023-01-25T15:21:31.105Z,-0.62
2023-01-25T15:24:04.544Z,-0.76
2023-01-25T15:26:33.401Z,-0.79
2023-01-25T15:29:03.568Z,-0.63
2023-01-25T15:31:37.026Z,-0.70
2023-01-25T15:34:05.008Z,-0.77
2023-01-25T15:36:35.815Z,-0.84
2023-01-25T15:39:02.383Z,-0.96
2023-01-25T15:41:29.588Z,-0.96
2023-01-25T15:43:56.336Z,-0.93
2023-01-25T15:46:26.596Z,-0.95
2023-01-25T15:48:54.019Z,-1.02
2023-01-25T15:51:21.257Z,-1.08
2023-01-25T15:53:47.910Z,-0.95
2023-01-25T15:56:24.432Z,-1.01
2023-01-25T15:58:53.425Z,-0.98
2023-01-25T16:01:21.297Z,-0.72
2023-01-25T16:03:47.753Z,-0.85
2023-01-25T16:06:26.751Z,-0.91
2023-01-25T16:08:53.288Z,-1.00
2023-01-25T16:11:19.702Z,-0.99
2023-01-25T16:13:46.273Z,-0.83
2023-01-25T16:16:19.433Z,-0.81
2023-01-25T16:18:46.106Z,-0.83
2023-01-25T16:21:14.025Z,-0.66
2023-01-25T16:23:40.645Z,-0.91
2023-01-25T16:26:17.580Z,-1.04
2023-01-25T16:28:44.172Z,-0.82
2023-01-25T16:31:30.776Z,-0.80
2023-01-25T16:33:58.475Z,-0.85
2023-01-25T16:36:26.303Z,-0.80
2023-01-25T16:38:52.986Z,-0.75
2023-01-25T16:41:19.804Z,-0.54
2023-01-25T16:43:48.183Z,-0.70
2023-01-25T16:46:20.993Z,-0.80
2023-01-25T16:48:49.809Z,-0.85
2023-01-25T16:51:22.167Z,-0.71
2023-01-25T16:53:50.988Z,-0.62
2023-01-25T16:56:26.508Z,-0.35
2023-01-25T16:58:54.947Z,-0.44
2023-01-25T17:01:24.969Z,-0.70
2023-01-25T17:03:54.332Z,-0.68
2023-01-25T17:06:22.309Z,-0.37
2023-01-25T17:08:49.706Z,-0.57
2023-01-25T17:11:18.913Z,-0.49
2023-01-25T17:13:54.570Z,-0.62
2023-01-25T17:16:24.096Z,-0.81
2023-01-25T17:19:00.101Z,-0.82
2023-01-25T17:21:27.812Z,-0.83
2023-01-25T17:23:56.713Z,-1.01
2023-01-25T17:26:23.802Z,-0.87
2023-01-25T17:28:50.860Z,-0.82
2023-01-25T17:31:20.819Z,-0.74
2023-01-25T17:33:51.534Z,-0.80
2023-01-25T17:36:18.499Z,-0.69
2023-01-25T17:38:45.198Z,-0.82
2023-01-25T17:41:15.961Z,-1.00
2023-01-25T17:43:42.524Z,-1.03
2023-01-25T17:46:25.492Z,-0.84
2023-01-25T17:48:57.477Z,-0.88
2023-01-25T17:51:25.128Z,-0.82
2023-01-25T17:53:53.051Z,-0.87
2023-01-25T17:56:20.500Z,-0.92
2023-01-25T17:58:47.690Z,-0.91
2023-01-25T18:01:16.800Z,-0.82
2023-01-25T18:03:44.703Z,-0.71
2023-01-25T18:06:16.753Z,-0.74
2023-01-25T18:08:46.468Z,-0.82
2023-01-25T18:11:16.166Z,-0.90
2023-01-25T18:13:44.468Z,-0.89
2023-01-25T18:16:14.971Z,-0.82
2023-01-25T18:18:43.651Z,-0.81
2023-01-25T18:21:16.549Z,-0.72
2023-01-25T18:23:47.514Z,-0.65
2023-01-25T18:26:21.813Z,-0.71
2023-01-25T18:28:49.448Z,-0.75
2023-01-25T18:31:17.613Z,-0.66
2023-01-25T18:33:44.977Z,-0.89
2023-01-25T18:36:15.546Z,-0.86
2023-01-25T18:38:42.140Z,-0.98
2023-01-25T18:41:08.630Z,-0.95
2023-01-25T18:43:35.937Z,-0.71
2023-01-25T18:46:08.179Z,-0.64
2023-01-25T18:48:35.263Z,-0.69
2023-01-25T18:51:11.225Z,-0.63
2023-01-25T18:53:39.827Z,-0.60
2023-01-25T18:56:07.341Z,-0.52
2023-01-25T18:58:36.391Z,-0.77
2023-01-25T19:01:17.539Z,-0.85
2023-01-25T19:03:45.075Z,-0.57
2023-01-25T19:06:12.357Z,-0.64
2023-01-25T19:08:44.255Z,-0.81
2023-01-25T19:11:13.568Z,-0.90
2023-01-25T19:13:41.493Z,-0.97
2023-01-25T19:16:09.567Z,-0.74
2023-01-25T19:18:39.657Z,-0.92
2023-01-25T19:21:10.811Z,-0.74
2023-01-25T19:23:39.514Z,-0.81
2023-01-25T19:26:08.466Z,-1.08
2023-01-25T19:28:36.692Z,-0.95
2023-01-25T19:31:26.561Z,-1.01
2023-01-25T19:34:00.455Z,-1.01
2023-01-25T19:36:29.765Z,-0.92
2023-01-25T19:38:57.555Z,-0.78
2023-01-25T19:41:26.813Z,-0.84
2023-01-25T19:44:03.613Z,-0.78
2023-01-25T19:46:35.636Z,-0.86
2023-01-25T19:49:04.496Z,-0.82
2023-01-25T19:51:33.977Z,-0.89
2023-01-25T19:54:06.263Z,-1.00
2023-01-25T19:56:39.204Z,-1.11
2023-01-25T19:59:09.214Z,-1.19
2023-01-25T20:01:36.947Z,-1.07
2023-01-25T20:04:06.168Z,-1.05
2023-01-25T20:06:33.149Z,-1.13
2023-01-25T20:08:59.976Z,-1.12
2023-01-25T20:11:29.206Z,-1.15
2023-01-25T20:14:02.599Z,-1.01
2023-01-25T20:16:32.154Z,-1.13
2023-01-25T20:18:59.985Z,-1.19
2023-01-25T20:21:28.309Z,-0.98
2023-01-25T20:23:58.594Z,-0.94
2023-01-25T20:26:30.633Z,-1.01
2023-01-25T20:28:59.225Z,-1.05
2023-01-25T20:31:27.869Z,-0.82
2023-01-25T20:33:59.425Z,-0.79
2023-01-25T20:36:28.410Z,-1.09
2023-01-25T20:38:55.703Z,-0.87
2023-01-25T20:41:23.113Z,-1.10
2023-01-25T20:43:57.620Z,-0.96
2023-01-25T20:46:26.080Z,-1.11
2023-01-25T20:48:56.471Z,-0.94
2023-01-25T20:51:24.286Z,-1.01
2023-01-25T20:53:51.676Z,-1.01
2023-01-25T20:56:19.481Z,-1.05
2023-01-25T20:58:50.640Z,-0.94
2023-01-25T21:01:28.777Z,-0.88
2023-01-25T21:03:57.154Z,-0.88
2023-01-25T21:06:26.065Z,-0.95
2023-01-25T21:08:52.898Z,-0.96
2023-01-25T21:11:19.792Z,-0.98
2023-01-25T21:13:48.047Z,-0.88
2023-01-25T21:16:18.039Z,-0.87
2023-01-25T21:18:50.014Z,-1.15
2023-01-25T21:21:20.280Z,-1.01
2023-01-25T21:23:48.996Z,-1.25
2023-01-25T21:26:19.084Z,-1.17
2023-01-25T21:28:46.465Z,-1.23
2023-01-25T21:31:19.257Z,-1.18
2023-01-25T21:33:47.000Z,-1.27
2023-01-25T21:36:15.028Z,-1.33
2023-01-25T21:38:44.082Z,-1.28
2023-01-25T21:41:13.366Z,-1.20
2023-01-25T21:43:58.813Z,-1.18
2023-01-25T21:46:27.468Z,-1.34
2023-01-25T21:49:14.413Z,-1.18
2023-01-25T21:51:51.448Z,-1.02
2023-01-25T21:54:22.393Z,-1.20
2023-01-25T21:56:51.370Z,-1.04
2023-01-25T21:59:18.367Z,-0.97
2023-01-25T22:01:46.417Z,-1.09
2023-01-25T22:04:14.733Z,-1.01
2023-01-25T22:06:42.425Z,-1.13
2023-01-25T22:09:10.304Z,-0.95
2023-01-25T22:11:37.086Z,-1.05
2023-01-25T22:14:03.676Z,-0.96
2023-01-25T22:16:31.105Z,-1.04
2023-01-25T22:19:00.153Z,-0.87
2023-01-25T22:21:30.979Z,-0.87
2023-01-25T22:24:03.098Z,-1.02
2023-01-25T22:27:03.887Z,-0.97
2023-01-25T22:29:32.420Z,-1.10
2023-01-25T22:31:59.208Z,-0.80
2023-01-25T22:34:26.920Z,-1.09
2023-01-25T22:36:53.491Z,-0.85
2023-01-25T22:39:20.200Z,-0.83
2023-01-25T22:41:46.866Z,-0.91
2023-01-25T22:44:14.948Z,-1.35
2023-01-25T22:46:41.457Z,-1.50
2023-01-25T22:49:08.030Z,-1.20
2023-01-25T22:51:34.716Z,-1.11
2023-01-25T22:54:01.813Z,-1.20
2023-01-25T22:56:34.925Z,-0.97
2023-01-25T22:59:02.098Z,-1.00
2023-01-25T23:01:31.717Z,-1.00
2023-01-25T23:03:59.156Z,-1.32
2023-01-25T23:06:28.437Z,-1.16
2023-01-25T23:08:57.278Z,-1.30
2023-01-25T23:11:25.291Z,-1.18
2023-01-25T23:14:13.917Z,-1.29
2023-01-25T23:16:42.543Z,-1.22
2023-01-25T23:19:09.908Z,-1.12
2023-01-25T23:21:36.805Z,-1.23
2023-01-25T23:24:04.172Z,-1.08
2023-01-25T23:26:39.190Z,-0.90
2023-01-25T23:29:09.350Z,-0.80
2023-01-25T23:31:36.944Z,-0.87
2023-01-25T23:34:05.697Z,-1.27
2023-01-25T23:36:38.909Z,-1.33
2023-01-25T23:39:06.199Z,-1.31
2023-01-25T23:41:32.859Z,-1.35
2023-01-25T23:44:01.329Z,-1.43
2023-01-25T23:46:28.588Z,-1.13
2023-01-25T23:48:55.660Z,-1.09
2023-01-25T23:51:22.581Z,-1.14
2023-01-25T23:53:49.248Z,-1.07
2023-01-25T23:56:19.093Z,-1.30
2023-01-25T23:58:46.320Z,-1.36
